Terminal Aerodrome Forecast
Issued by NWS

Current Version | Previous Version | Text Only | Print | Product List | Glossary On
Versions: 1 2 3 4 5 6 7 8 9 10 11 12
013
FTUS43 KMQT 220523
TAFCMX
TAF
KCMX 220523Z 2206/2306 09008KT P6SM BKN110
     FM221000 09008KT P6SM BKN070
     FM221700 09007KT P6SM VCSH BKN035
     FM222100 09007KT P6SM -SHRA BKN030
     FM230100 09006KT P6SM -SHRA BKN025=

USA.gov is the U.S. government's official web portal to all federal, state and local government web resources and services.